Regen radar Meer informatie rain snow radar


Bezoek onze andere website:

Template documentation
and downloads

And another site



METAR rapporten vliegvelden

   
EBAW - Antwerp
Gewijzigd: 14-12-2018 07:20
Grotendeels bewolkt  
Grotendeels bewolkt  
   Wind: NO 9.3 km/h
Wind: NO 9.3 km/h
Temperatuur: 0°C
Voelt als: -3°C
Dauwpunt: -1°C
Vochtigheid: 93%
Barometer: 1022 hPa
Bewolking: Grotendeels bewolkt
Zicht: 6 km
Bewolking: Grotendeels bewolkt 600 ft,
Grotendeels bewolkt 4000 ft
EBAW 140620Z 05005KT 6000 BKN006 BKN040 M00/M01 Q1022 TEMPO 4000 BR BKN004
EBLG - Li├Ęge
Gewijzigd: 14-12-2018 07:20
Grotendeels bewolkt  
Grotendeels bewolkt  
   Wind: Oosten 13 km/h
Wind: Oosten 13 km/h
Temperatuur: 0°C
Voelt als: -4°C
Dauwpunt: -6°C
Vochtigheid: 64%
Barometer: 1020 hPa
Bewolking: Grotendeels bewolkt
Zicht: meer dan 10 km
Bewolking: Grotendeels bewolkt 2900 ft
EBLG 140620Z 09007KT 060V120 9999 BKN029 M00/M06 Q1020 NOSIG
EBCV - Mons/Bergen
Gewijzigd: 14-12-2018 07:19
Nevel, Bewolking  
Nevel, Bewolking  
   Wind: NNO 5.6 km/h
Wind: NNO 5.6 km/h
Temperatuur: -2°C
Voelt als: -4°C
Dauwpunt: -2°C
Vochtigheid: 100%
Barometer: 1021 hPa
Bewolking: Bewolking
Zicht: 4 km
Bewolking: Bewolking 3300 ft
EBCV 140619Z AUTO 02003KT 3600 BR OVC033/// M02/M02 Q1021 YLO
EHBK - Maastricht
Gewijzigd: 14-12-2018 07:25
Bewolking  
Bewolking  
   Wind: NO 11.1 km/h
Wind: NO 11.1 km/h
Temperatuur: 0°C
Voelt als: -3°C
Dauwpunt: -1°C
Vochtigheid: 93%
Barometer: 1020 hPa
Bewolking: Bewolking
Zicht: 7 km
Bewolking: Bewolking 2800 ft
EHBK 140625Z AUTO 05006KT 7000 OVC028 00/M01 Q1020 NOSIG
ELLX - Luxemburg
Gewijzigd: 14-12-2018 07:20
Grotendeels bewolkt  
Grotendeels bewolkt  
   Wind: ONO 13 km/h
Wind: ONO 13 km/h
Temperatuur: -2°C
Voelt als: -7°C
Dauwpunt: -7°C
Vochtigheid: 69%
Barometer: 1017 hPa
Bewolking: Grotendeels bewolkt
Zicht: meer dan 10 km
Bewolking: Grotendeels bewolkt 2500 ft
ELLX 140620Z 07007KT 040V120 9999 BKN025 M02/M07 Q1017 NOSIG
EBOS - Oostende
Gewijzigd: 14-12-2018 07:20
Gedeeltelijk bewolkt  
Gedeeltelijk bewolkt  
   Wind: ONO 11.1 km/h
Wind: ONO 11.1 km/h
Temperatuur: -1°C
Voelt als: -5°C
Dauwpunt: -3°C
Vochtigheid: 86%
Barometer: 1022 hPa
Bewolking: Gedeeltelijk bewolkt
Zicht: 6 km
Bewolking: Gedeeltelijk bewolkt 4000 ft
EBOS 140620Z 06006KT 6000 SCT040 M01/M03 Q1022 TEMPO 4000 BR

Script ontwikkeld door  Saratoga-weather.org Aangepast voor de template door  Weerstation Leuven

U vindt ons ook hier:

Het Weer Aktueel

Weather Underground

Apparatuur in gebruik:

Weercomputer
apple

Webleverancier
weservit

apple

weservit